Airfield :
LOGIN :

Register | Disclaimer

   EN    FR    IT 

 










Legend :    VFR   Marginal VFR   IFR   Intensive IFR   Very Intensive IFR
Visi :
Ceiling :
>= 8 km
>= 3000ft
5 to 8 km
1000 to 3000 ft
1500m to 5 km
500 to 1000 ft
800 to 1500m
200 to 500 ft
< 800m
< 200 ft
Symbols :   Thunderstorms  Fog  Heavy snow  Heavy precipitations  Wind > 20 kt
SIGMETs :     Misc.  Thunderstorms  Icing  Turbulence  Mountain Waves  Volcanic Ashes






- Airport Elevation : 299 ft
- IATA code : EDM


LFRI - La Roche Sur Yon - Les Ajoncs

CURRENT METAR :
  • 291930Z AUTO 21007KT 9999 BKN010 BKN015 BKN030 14/13 Q1024 NOSIG

EXPIRED METARs :
  • 291900Z AUTO 22006KT 200V260 9999 BKN010 BKN017 OVC036 15/13 Q1024 NOSIG
  • 291830Z AUTO 21007KT 9999 OVC011 15/13 Q1024 TEMPO BKN007 OVC014
  • 291800Z AUTO 22006KT 9999 BKN012 BKN017 OVC039 15/13 Q1024 BECMG BKN007 OVC014
  • 291730Z AUTO 22006KT 9999 FEW011 OVC038 15/13 Q1024 BECMG BKN007 OVC014
  • 291700Z AUTO 23006KT 9999 BKN012 BKN023 OVC037 15/13 Q1024 BECMG BKN009

TAF TAF LFRI
Valid from the 29 at 18:00 until the 30 at 18:00 UTC


291700Z 2918/3018 23010KT 9999 SCT010 BKN030
TEMPO 2918/3002 BKN007 OVC014
BECMG 2923/3001 4500 BR
BECMG 3002/3004 17006KT 0600 FG VV///
TEMPO 3004/3009 0300
BECMG 3010/3012 9999 NSW SCT005



MET'MAP, your aeronautical weather chart ! - Copyright ORBIFLY December 2007 - Disclaimer

ORBIFLY MET'MAP TEAM :

Programming & Development : Alexandra Zaïnal
Concept & original design : Baudouin d'Aumeries
Assistance for programming : Marc-Olivier Méhu
Technical & hardware support : Manuel Goepfert

Contact : metmap@orbifly.com




SOURCES & CREDITS :

   NOAA